Terminal Aerodrome Forecast
Issued by NWS

Home | Current Version | Previous Version | Text Only | Print | Product List | Glossary On
Versions: 1 2 3 4 5 6 7 8 9 10 11 12 13 14 15 16 17 18 19 20 21 22 23 24 25 26 27 28 29 30 31 32 33 34 35 36 37 38 39 40 41 42 43 44 45
000
FTUS41 KRNK 232341
TAFLWB
TAF
KLWB 232341Z 2400/2424 00000KT P6SM SCT120
     FM240500 05002KT 4SM BR SKC
     FM240700 00000KT 1/4SM FG OVC001
     FM241400 VRB03KT P6SM SCT015 BKN150
     FM241800 09004KT P6SM BKN250
     FM242200 11004KT P6SM OVC050=

USA.gov is the U.S. government's official web portal to all federal, state and local government web resources and services.